createdAt,value
2022-09-26T01:28:19.242Z,5.90
2022-09-26T03:00:46.394Z,8.40
2022-09-26T03:16:02.975Z,7.20
2022-09-26T03:40:13.395Z,5.90
2022-09-26T03:48:21.214Z,5.40
2022-09-26T03:56:48.862Z,9.20
2022-09-26T04:00:44.393Z,4.00
2022-09-26T04:04:19.572Z,5.30
2022-09-26T04:07:29.671Z,14.30
2022-09-26T04:18:52.514Z,8.00
2022-09-26T04:22:45.360Z,6.80
2022-09-26T04:29:34.700Z,6.40
2022-09-26T04:33:02.153Z,7.20
2022-09-26T04:40:43.418Z,10.00
2022-09-26T05:00:49.171Z,8.40
2022-09-26T05:14:07.466Z,10.50
2022-09-26T05:15:44.224Z,11.50
2022-09-26T05:18:43.699Z,10.10
2022-09-26T05:39:21.978Z,9.80
2022-09-26T05:42:44.648Z,12.50
2022-09-26T05:46:18.639Z,14.90
2022-09-26T05:53:32.276Z,10.40
2022-09-26T05:58:08.433Z,9.90
2022-09-26T06:11:15.472Z,10.60
2022-09-26T06:16:55.594Z,15.90
2022-09-26T06:20:13.576Z,9.60
2022-09-26T06:47:25.743Z,15.60
2022-09-26T06:58:33.564Z,15.40
2022-09-26T07:11:11.110Z,13.50
2022-09-26T07:16:35.797Z,17.80
2022-09-26T07:19:40.879Z,17.90
2022-09-26T07:27:45.326Z,14.60
2022-09-26T07:30:28.133Z,17.30
2022-09-26T07:38:03.653Z,18.20
2022-09-26T07:50:21.946Z,12.40
2022-09-26T07:55:13.592Z,14.50
2022-09-26T08:15:02.978Z,15.40
2022-09-26T08:22:57.243Z,12.00
2022-09-26T08:43:20.159Z,6.70
2022-09-26T08:51:35.189Z,6.30
2022-09-26T09:07:47.487Z,7.90
2022-09-26T09:53:30.716Z,8.20
2022-09-26T09:56:39.301Z,9.80
2022-09-26T09:59:30.681Z,6.80
2022-09-26T10:02:29.131Z,6.40
2022-09-26T10:10:05.841Z,5.30
2022-09-26T10:17:33.248Z,4.60
2022-09-26T10:21:15.557Z,4.40
2022-09-26T10:24:44.751Z,4.60
2022-09-26T10:27:48.221Z,3.60
2022-09-26T10:30:50.622Z,5.00
2022-09-26T10:34:01.095Z,3.90
2022-09-26T10:37:27.531Z,3.30
2022-09-26T10:44:01.574Z,4.70
2022-09-26T10:47:30.878Z,3.90
2022-09-26T10:57:49.762Z,6.20
2022-09-26T11:04:14.032Z,3.60
2022-09-26T11:07:28.529Z,4.40
2022-09-26T11:10:57.071Z,5.50
2022-09-26T11:14:17.551Z,4.00
2022-09-26T11:17:20.385Z,6.60
2022-09-26T11:34:27.373Z,5.20
2022-09-26T11:37:57.000Z,6.20
2022-09-26T11:41:03.227Z,6.30
2022-09-26T11:47:42.152Z,5.20
2022-09-26T11:50:43.788Z,4.50
2022-09-26T11:54:02.947Z,5.00
2022-09-26T11:57:38.500Z,4.20
2022-09-26T12:03:34.218Z,6.60
2022-09-26T12:10:54.945Z,7.40
2022-09-26T12:13:46.806Z,5.00
2022-09-26T12:24:21.638Z,2.30
2022-09-26T12:34:22.868Z,2.50
2022-09-26T12:40:49.169Z,3.30
2022-09-26T12:44:17.332Z,4.80
2022-09-26T12:51:51.065Z,4.10
2022-09-26T12:54:48.218Z,4.50
2022-09-26T12:58:17.931Z,3.20
2022-09-26T13:05:14.399Z,2.40
2022-09-26T13:08:15.954Z,4.00
2022-09-26T13:11:18.710Z,3.40
2022-09-26T13:18:11.623Z,2.70
2022-09-26T13:21:10.845Z,3.60
2022-09-26T13:23:59.992Z,5.00
2022-09-26T13:26:47.340Z,4.90
2022-09-26T13:30:01.027Z,3.30
2022-09-26T13:36:36.729Z,3.20
2022-09-26T13:39:57.028Z,4.20
2022-09-26T13:42:50.700Z,3.50
2022-09-26T13:45:41.197Z,4.40
2022-09-26T13:48:27.990Z,5.30
2022-09-26T13:51:47.020Z,5.70
2022-09-26T13:54:57.719Z,3.70
2022-09-26T13:58:12.612Z,4.20
2022-09-26T14:01:39.062Z,6.10
2022-09-26T14:04:40.362Z,4.90
2022-09-26T14:08:05.048Z,6.50
2022-09-26T14:11:11.734Z,7.00
2022-09-26T14:13:56.235Z,7.20
2022-09-26T14:16:40.020Z,6.60
2022-09-26T14:19:37.822Z,4.50
2022-09-26T14:22:45.538Z,5.20
2022-09-26T14:25:51.200Z,4.30
2022-09-26T14:28:37.940Z,6.10
2022-09-26T14:31:40.183Z,5.70
2022-09-26T14:34:26.959Z,6.00
2022-09-26T14:37:20.868Z,6.00
2022-09-26T14:40:30.182Z,5.30
2022-09-26T14:43:09.099Z,6.90
2022-09-26T14:50:27.252Z,4.70
2022-09-26T14:53:06.506Z,6.50
2022-09-26T14:55:41.374Z,3.60
2022-09-26T14:59:30.546Z,5.20
2022-09-26T15:06:31.741Z,4.30
2022-09-26T15:09:12.034Z,5.20
2022-09-26T15:11:49.527Z,6.10
2022-09-26T15:14:27.124Z,3.40
2022-09-26T15:17:01.303Z,3.60
2022-09-26T15:24:27.810Z,3.40
2022-09-26T15:27:11.901Z,2.60
2022-09-26T15:30:06.654Z,4.00
2022-09-26T15:35:39.531Z,4.30
2022-09-26T15:38:47.063Z,4.10
2022-09-26T15:41:35.733Z,4.70
2022-09-26T15:50:11.308Z,4.30
2022-09-26T15:53:03.682Z,3.60
2022-09-26T15:56:46.685Z,4.30
2022-09-26T16:06:56.986Z,3.00
2022-09-26T16:10:26.568Z,5.70
2022-09-26T16:20:06.607Z,4.90
2022-09-26T16:22:51.909Z,4.20
2022-09-26T16:25:43.327Z,3.10
2022-09-26T16:29:03.641Z,6.50
2022-09-26T16:42:19.086Z,4.80
2022-09-26T16:45:43.311Z,3.70
2022-09-26T16:50:25.665Z,2.10
2022-09-26T17:20:27.816Z,3.50
2022-09-26T17:23:42.281Z,3.10
2022-09-26T17:35:07.662Z,3.10
2022-09-26T17:41:28.571Z,5.00
2022-09-26T17:47:13.727Z,5.00
2022-09-26T17:54:27.673Z,4.80
2022-09-26T17:57:07.407Z,4.60
2022-09-26T17:59:41.933Z,5.00
2022-09-26T18:02:28.436Z,4.10
2022-09-26T18:12:28.176Z,5.70
2022-09-26T18:20:42.595Z,4.40
2022-09-26T18:26:45.943Z,4.70
2022-09-26T18:29:38.552Z,4.60
2022-09-26T18:32:15.203Z,4.60
2022-09-26T18:34:50.459Z,5.50
2022-09-26T18:37:22.863Z,5.70
2022-09-26T18:40:00.151Z,5.30
2022-09-26T18:42:46.722Z,3.20
2022-09-26T18:45:29.262Z,4.20
2022-09-26T18:48:37.579Z,4.20
2022-09-26T18:52:20.133Z,3.50
2022-09-26T18:55:51.264Z,5.00
2022-09-26T18:58:57.153Z,4.60
2022-09-26T19:02:35.303Z,3.30
2022-09-26T19:16:06.531Z,1.60
2022-09-26T19:19:19.285Z,2.40
2022-09-26T19:23:29.461Z,3.70
2022-09-26T19:42:36.208Z,3.50
2022-09-26T19:48:38.527Z,5.30
2022-09-26T19:51:23.320Z,3.20
2022-09-26T19:53:56.913Z,4.70
2022-09-26T19:56:40.428Z,5.40
2022-09-26T19:59:25.360Z,3.60
2022-09-26T20:02:16.630Z,4.10
2022-09-26T20:04:55.912Z,6.10
2022-09-26T20:07:38.083Z,3.50
2022-09-26T20:10:18.174Z,5.10
2022-09-26T20:12:54.591Z,5.40
2022-09-26T20:15:37.826Z,5.10
2022-09-26T20:18:28.396Z,3.20
2022-09-26T20:21:09.954Z,3.70
2022-09-26T20:23:53.931Z,2.00
2022-09-26T20:26:24.834Z,5.30
2022-09-26T20:28:55.498Z,2.40
2022-09-26T20:31:30.017Z,3.70
2022-09-26T20:34:21.793Z,4.90
2022-09-26T20:36:53.293Z,5.60
2022-09-26T20:39:26.005Z,3.70
2022-09-26T20:41:58.736Z,3.40
2022-09-26T20:44:34.098Z,2.70
2022-09-26T20:47:06.436Z,3.30
2022-09-26T20:49:48.126Z,4.50
2022-09-26T20:52:22.418Z,4.80
2022-09-26T20:54:53.323Z,2.20
2022-09-26T20:57:23.901Z,2.90
2022-09-26T21:00:00.035Z,2.40
2022-09-26T21:02:38.232Z,3.20
2022-09-26T21:05:17.686Z,2.70
2022-09-26T21:07:48.383Z,4.30
2022-09-26T21:10:27.243Z,4.40
2022-09-26T21:12:58.020Z,3.60
2022-09-26T21:15:31.089Z,3.30
2022-09-26T21:18:03.955Z,3.10
2022-09-26T21:20:35.171Z,2.20
2022-09-26T21:23:24.280Z,3.10
2022-09-26T21:25:54.629Z,2.80
2022-09-26T21:28:27.523Z,2.50
2022-09-26T21:31:00.383Z,2.60
2022-09-26T21:36:00.345Z,2.30
2022-09-26T21:38:30.845Z,1.50
2022-09-26T21:41:03.799Z,1.80
2022-09-26T21:43:39.008Z,3.20
2022-09-26T21:46:09.772Z,2.20
2022-09-26T21:48:40.154Z,2.80
2022-09-26T21:51:13.797Z,2.60
2022-09-26T21:53:49.198Z,2.90
2022-09-26T21:56:22.155Z,2.60
2022-09-26T22:01:21.817Z,2.80
2022-09-26T22:03:53.179Z,2.60
2022-09-26T22:06:23.564Z,2.40
2022-09-26T22:08:54.372Z,2.20
2022-09-26T22:11:24.734Z,2.30
2022-09-26T22:13:56.309Z,3.50
2022-09-26T22:16:27.728Z,1.80
2022-09-26T22:18:58.262Z,3.10
2022-09-26T22:21:28.994Z,2.50
2022-09-26T22:24:00.073Z,2.00
2022-09-26T22:26:30.489Z,2.60
2022-09-26T22:29:00.929Z,3.00
2022-09-26T22:31:31.373Z,3.70
2022-09-26T22:34:02.351Z,2.50
2022-09-26T22:36:33.308Z,2.90
2022-09-26T22:39:03.867Z,2.70
2022-09-26T22:41:34.431Z,2.50
2022-09-26T22:44:05.004Z,2.30
2022-09-26T22:46:36.305Z,3.70
2022-09-26T22:49:07.045Z,2.80
2022-09-26T22:51:37.552Z,2.40
2022-09-26T22:54:08.004Z,3.30
2022-09-26T22:56:38.404Z,2.80
2022-09-26T22:59:08.747Z,2.20
2022-09-26T23:01:39.173Z,2.50
2022-09-26T23:04:09.790Z,1.50
2022-09-26T23:06:40.137Z,2.10
2022-09-26T23:09:10.534Z,1.90
2022-09-26T23:11:40.971Z,2.50
2022-09-26T23:14:11.453Z,1.80
2022-09-26T23:16:42.419Z,2.60
2022-09-26T23:19:12.969Z,1.70
2022-09-26T23:21:43.426Z,1.60
2022-09-26T23:24:13.905Z,2.10
2022-09-26T23:26:44.278Z,3.40
2022-09-26T23:29:14.662Z,1.70
2022-09-26T23:31:45.126Z,2.50
2022-09-26T23:34:15.537Z,3.30
2022-09-26T23:36:46.909Z,2.50
2022-09-26T23:39:17.479Z,2.90
2022-09-26T23:41:48.064Z,1.60
2022-09-26T23:44:18.462Z,2.10
2022-09-26T23:46:49.099Z,3.10
2022-09-26T23:49:22.323Z,2.70
2022-09-26T23:51:52.980Z,1.70
2022-09-26T23:54:23.333Z,3.50
2022-09-26T23:56:53.846Z,2.80
2022-09-26T23:59:25.344Z,3.40
